LSZS/SMV METAR and TAF weather

Enter ICAO airport designator
Station Type Date Time Source
LSZS METAR 2019/12/08 16:50 UTC NOAA

LSZS 081650Z AUTO 15010KT 120V200 CAVOK M01/M07 Q1014


Station Type Date Time Source
LSZS Decoded METAR 2019/12/08 16:50 UTC NOAA

Station name not available
Dec 08, 2019 - 11:50 AM EST / 2019.12.08 1650 UTC
Wind: from the SSE (150 degrees) at 12 MPH (10 KT) (direction variable):0
Visibility: greater than 7 mile(s):0
Temperature: 30 F (-1 C)
Windchill: 19 F (-7 C):1
Dew Point: 19 F (-7 C)
Relative Humidity: 63%
Pressure (altimeter): 29.94 in. Hg (1014 hPa)
ob: LSZS 081650Z AUTO 15010KT 120V200 CAVOK M01/M07 Q1014
cycle: 17

Station Type Date Time Source
LSZS TAF 2014/12/22 20:03 UTC NOAA

TAF
AMD LSZS 222054Z 2220/2224 CNL

Example: see airport list